Time;durP1;ratioP1;P1;durP2;ratioP2;P2;SDS_P1;SDS_P2;PMS_P1;PMS_P2;Temp;Humidity;BMP_temperature;BMP_pressure;BME280_temperature;BME280_humidity;BME280_pressure;Samples;Min_cycle;Max_cycle;Signal;HPM_P1;HPM_P2
2022/02/19 00:00:24;;;;;;;;;;;;;;;12.34;59.87;98901.88;4321561;33;20025;-89
2022/02/19 00:02:50;;;;;;;;;;;;;;;12.12;59.86;98903.94;4306684;33;19986;-87
2022/02/19 00:05:15;;;;;;;;;;;;;;;12.20;59.86;98901.75;4318943;33;20055;-87
2022/02/19 00:07:40;;;;;;;;;;;;;;;11.91;59.86;98896.28;4318748;33;20004;-87
2022/02/19 00:10:06;;;;;;;;;;;;;;;11.98;59.86;98902.00;4318579;33;19984;-86
2022/02/19 00:12:31;;;;;;;;;;;;;;;11.94;59.85;98895.28;4306670;33;20310;-86
2022/02/19 00:14:56;;;;;;;;;;;;;;;12.03;59.86;98905.22;4318249;33;24015;-87
2022/02/19 00:17:21;;;;;;;;;;;;;;;11.82;59.84;98901.09;4306775;33;20032;-87
2022/02/19 00:19:47;;;;;;;;;;;;;;;11.84;59.85;98886.25;4318825;33;19999;-86
2022/02/19 00:22:12;;;;;;;;;;;;;;;11.95;59.85;98892.59;4320703;33;20007;-87
2022/02/19 00:24:37;;;;;;;;;;;;;;;11.80;59.84;98895.97;4318098;33;29313;-85
2022/02/19 00:27:03;;;;;;;;;;;;;;;11.88;59.84;98900.81;4318499;33;20011;-87
2022/02/19 00:29:28;;;;;;;;;;;;;;;11.87;59.84;98884.31;4318708;33;20010;-87
2022/02/19 00:31:53;;;;;;;;;;;;;;;11.92;59.85;98892.75;4306284;33;19968;-88
2022/02/19 00:34:18;;;;;;;;;;;;;;;11.68;59.85;98900.00;4318541;33;20395;-86
2022/02/19 00:36:44;;;;;;;;;;;;;;;11.65;59.84;98902.78;4332019;33;20022;-85
2022/02/19 00:39:09;;;;;;;;;;;;;;;11.52;59.82;98900.84;4332110;33;19980;-86
2022/02/19 00:41:37;;;;;;;;;;;;;;;11.58;59.83;98890.94;4322637;33;19960;-85
2022/02/19 00:44:02;;;;;;;;;;;;;;;11.80;59.84;98900.31;4328768;33;20385;-88
2022/02/19 00:46:27;;;;;;;;;;;;;;;11.81;59.84;98905.47;4325886;33;20008;-88
2022/02/19 00:48:53;;;;;;;;;;;;;;;11.62;59.84;98918.56;4321892;33;20178;-87
2022/02/19 00:51:18;;;;;;;;;;;;;;;11.46;59.83;98907.19;4331024;33;20011;-88
2022/02/19 00:53:44;;;;;;;;;;;;;;;11.39;59.83;98916.25;4322405;33;20019;-88
2022/02/19 00:56:09;;;;;;;;;;;;;;;11.39;59.83;98908.44;4322034;33;20070;-89
2022/02/19 00:58:37;;;;;;;;;;;;;;;11.41;59.83;98913.56;4319402;33;19984;-89
2022/02/19 01:01:03;;;;;;;;;;;;;;;11.35;59.82;98901.66;4320364;33;20019;-88
2022/02/19 01:03:29;;;;;;;;;;;;;;;11.44;59.82;98900.38;4308005;33;20000;-89
2022/02/19 01:05:54;;;;;;;;;;;;;;;11.39;59.82;98892.78;4320525;33;19984;-88
2022/02/19 01:08:19;;;;;;;;;;;;;;;11.30;59.81;98898.44;4320128;33;20035;-89
2022/02/19 01:10:45;;;;;;;;;;;;;;;11.23;59.82;98902.25;4319676;33;26777;-88
2022/02/19 01:13:10;;;;;;;;;;;;;;;11.08;59.81;98903.81;4307988;33;20064;-87
2022/02/19 01:15:35;;;;;;;;;;;;;;;10.83;59.79;98905.88;4308136;33;19983;-87
2022/02/19 01:18:00;;;;;;;;;;;;;;;10.84;59.79;98900.59;4320605;33;20322;-87
2022/02/19 01:20:26;;;;;;;;;;;;;;;10.85;59.79;98902.31;4320189;33;19996;-87
2022/02/19 01:22:51;;;;;;;;;;;;;;;10.76;59.79;98900.97;4320088;33;20340;-87
2022/02/19 01:25:16;;;;;;;;;;;;;;;10.83;59.79;98888.50;4319961;33;20027;-87
2022/02/19 01:27:41;;;;;;;;;;;;;;;10.77;59.79;98894.00;4307262;33;26648;-87
2022/02/19 01:30:07;;;;;;;;;;;;;;;10.64;59.78;98895.47;4319776;33;19999;-87
2022/02/19 01:32:32;;;;;;;;;;;;;;;10.56;59.78;98902.81;4333412;33;19999;-87
2022/02/19 01:34:58;;;;;;;;;;;;;;;10.62;59.79;98885.12;4319783;33;19988;-87
2022/02/19 01:37:23;;;;;;;;;;;;;;;10.61;59.79;98882.59;4320135;33;19980;-86
2022/02/19 01:39:49;;;;;;;;;;;;;;;10.57;59.78;98878.47;4308506;33;20029;-85
2022/02/19 01:42:14;;;;;;;;;;;;;;;10.45;59.77;98888.53;4333444;33;20010;-84
2022/02/19 01:44:39;;;;;;;;;;;;;;;10.46;59.76;98889.38;4319743;33;20019;-85
2022/02/19 01:47:07;;;;;;;;;;;;;;;10.47;59.77;98888.47;4319788;33;20329;-86
2022/02/19 01:49:33;;;;;;;;;;;;;;;10.54;59.78;98897.66;4333315;33;20048;-86
2022/02/19 01:51:58;;;;;;;;;;;;;;;10.47;59.77;98896.25;4319625;33;19995;-85
2022/02/19 01:54:23;;;;;;;;;;;;;;;10.51;59.78;98897.81;4333185;33;19987;-86
2022/02/19 01:56:49;;;;;;;;;;;;;;;10.39;59.77;98912.19;4319802;33;20028;-86
2022/02/19 01:59:14;;;;;;;;;;;;;;;10.34;59.76;98918.53;4320704;33;20019;-86
2022/02/19 02:01:39;;;;;;;;;;;;;;;10.38;59.76;98914.88;4321580;33;33588;-86
2022/02/19 02:04:04;;;;;;;;;;;;;;;10.37;59.76;98907.97;4322400;33;19996;-87
2022/02/19 02:06:30;;;;;;;;;;;;;;;10.28;59.76;98900.59;4334494;33;20676;-87
2022/02/19 02:08:55;;;;;;;;;;;;;;;10.25;59.76;98900.72;4335274;33;19992;-87
2022/02/19 02:11:20;;;;;;;;;;;;;;;10.16;59.76;98892.38;4331569;33;19991;-86
2022/02/19 02:13:46;;;;;;;;;;;;;;;10.03;59.75;98901.63;4322566;33;20310;-87
2022/02/19 02:16:11;;;;;;;;;;;;;;;9.89;59.74;98908.31;4319988;33;20004;-86
2022/02/19 02:18:36;;;;;;;;;;;;;;;10.20;59.76;98913.06;4319923;33;19980;-86
2022/02/19 02:21:01;;;;;;;;;;;;;;;9.94;59.75;98920.25;4319718;33;19992;-87
2022/02/19 02:23:27;;;;;;;;;;;;;;;10.19;59.76;98922.62;4307465;33;19992;-87
2022/02/19 02:25:52;;;;;;;;;;;;;;;9.99;59.75;98917.44;4320052;33;20002;-87
2022/02/19 02:28:19;;;;;;;;;;;;;;;9.97;59.75;98917.50;4307816;33;19999;-88
2022/02/19 02:30:44;;;;;;;;;;;;;;;9.77;59.73;98926.16;4307648;33;20277;-88
2022/02/19 02:33:11;;;;;;;;;;;;;;;9.81;59.74;98921.66;4319916;33;20011;-88
2022/02/19 02:35:36;;;;;;;;;;;;;;;9.70;59.72;98929.91;4322263;33;19997;-88
2022/02/19 02:38:02;;;;;;;;;;;;;;;9.74;59.73;98918.47;4319818;33;19976;-88
2022/02/19 02:40:28;;;;;;;;;;;;;;;9.72;59.73;98917.69;4319628;33;20030;-87
2022/02/19 02:42:53;;;;;;;;;;;;;;;9.76;59.72;98919.25;4319713;33;20019;-87
2022/02/19 02:45:18;;;;;;;;;;;;;;;9.81;59.74;98922.50;4319161;33;25254;-88
2022/02/19 02:47:45;;;;;;;;;;;;;;;9.81;59.74;98932.06;4319130;33;20592;-87
2022/02/19 02:50:11;;;;;;;;;;;;;;;9.83;59.73;98938.03;4307627;33;19996;-87
2022/02/19 02:52:37;;;;;;;;;;;;;;;10.00;59.74;98950.31;4319673;33;20023;-87
2022/02/19 02:55:02;;;;;;;;;;;;;;;10.07;59.74;98960.38;4319489;33;20250;-87
2022/02/19 02:57:28;;;;;;;;;;;;;;;10.25;59.76;98976.16;4322148;33;20015;-86
2022/02/19 02:59:53;;;;;;;;;;;;;;;10.10;59.75;98980.22;4319903;33;20000;-86
2022/02/19 03:02:18;;;;;;;;;;;;;;;10.08;59.75;98989.84;4319721;33;20021;-86
2022/02/19 03:04:43;;;;;;;;;;;;;;;10.02;59.75;98990.94;4332967;33;20055;-87
2022/02/19 03:07:08;;;;;;;;;;;;;;;9.90;59.73;99011.41;4306599;33;34298;-87
2022/02/19 03:09:34;;;;;;;;;;;;;;;9.79;59.74;99030.03;4319401;33;20027;-86
2022/02/19 03:11:59;;;;;;;;;;;;;;;9.96;59.75;99032.81;4319486;33;20039;-86
2022/02/19 03:14:24;;;;;;;;;;;;;;;9.77;59.73;99047.44;4319225;33;20686;-87
2022/02/19 03:16:49;;;;;;;;;;;;;;;9.73;59.73;99046.72;4320066;33;20000;-86
2022/02/19 03:19:15;;;;;;;;;;;;;;;9.70;59.72;99046.84;4307572;33;32978;-86
2022/02/19 03:21:40;;;;;;;;;;;;;;;9.49;59.72;99045.09;4334637;33;20028;-86
2022/02/19 03:24:05;;;;;;;;;;;;;;;9.67;59.73;99044.34;4335931;33;20023;-85
2022/02/19 03:26:31;;;;;;;;;;;;;;;9.82;59.73;99055.91;4322141;33;20019;-85
2022/02/19 03:28:56;;;;;;;;;;;;;;;9.75;59.73;99063.09;4337710;33;29333;-85
2022/02/19 03:31:22;;;;;;;;;;;;;;;9.76;59.73;99059.59;4334516;33;20003;-85
2022/02/19 03:33:47;;;;;;;;;;;;;;;9.98;59.74;99053.53;4307222;33;20027;-86
2022/02/19 03:36:12;;;;;;;;;;;;;;;10.07;59.74;99063.56;4332243;33;26661;-86
2022/02/19 03:38:37;;;;;;;;;;;;;;;10.17;59.75;99067.47;4332695;33;19984;-86
2022/02/19 03:41:03;;;;;;;;;;;;;;;10.19;59.76;99075.22;4332869;33;19996;-87
2022/02/19 03:43:28;;;;;;;;;;;;;;;10.27;59.76;99063.63;4332900;33;20030;-89
2022/02/19 03:45:54;;;;;;;;;;;;;;;10.27;59.76;99070.56;4307092;33;19995;-87
2022/02/19 03:48:20;;;;;;;;;;;;;;;10.35;59.76;99074.53;4319472;33;19992;-88
2022/02/19 03:50:45;;;;;;;;;;;;;;;10.42;59.77;99069.94;4318609;33;27502;-87
2022/02/19 03:53:10;;;;;;;;;;;;;;;10.47;59.76;99072.34;4321084;33;25526;-87
2022/02/19 03:55:35;;;;;;;;;;;;;;;10.52;59.77;99079.03;4332585;33;20044;-87
2022/02/19 03:58:02;;;;;;;;;;;;;;;10.32;59.77;99081.63;4319198;33;20003;-87
2022/02/19 04:00:27;;;;;;;;;;;;;;;10.49;59.77;99092.19;4319423;33;20059;-88
2022/02/19 04:02:52;;;;;;;;;;;;;;;10.40;59.77;99093.41;4307017;33;19996;-89
2022/02/19 04:05:17;;;;;;;;;;;;;;;10.56;59.78;99092.75;4306965;33;20000;-90
2022/02/19 04:07:44;;;;;;;;;;;;;;;10.40;59.77;99096.00;4307174;33;19995;-89
2022/02/19 04:10:09;;;;;;;;;;;;;;;10.55;59.78;99091.06;4319484;33;20043;-89
2022/02/19 04:12:35;;;;;;;;;;;;;;;10.65;59.78;99090.62;4319598;33;20002;-90
2022/02/19 04:15:00;;;;;;;;;;;;;;;10.70;59.79;99091.28;4320834;33;19988;-88
2022/02/19 04:17:25;;;;;;;;;;;;;;;10.79;59.78;99100.44;4319304;33;19987;-88
2022/02/19 04:19:53;;;;;;;;;;;;;;;11.00;59.79;99096.06;4318535;33;28345;-88
2022/02/19 04:22:18;;;;;;;;;;;;;;;10.85;59.79;99110.56;4319298;33;20310;-89
2022/02/19 04:24:45;;;;;;;;;;;;;;;10.76;59.79;99104.03;4318997;33;19984;-89
2022/02/19 04:27:10;;;;;;;;;;;;;;;11.04;59.79;99105.41;4306895;33;20408;-89
2022/02/19 04:29:35;;;;;;;;;;;;;;;11.18;59.80;99099.59;4318714;33;19984;-88
2022/02/19 04:32:00;;;;;;;;;;;;;;;11.34;59.82;99098.81;4318340;33;19999;-88
2022/02/19 04:34:26;;;;;;;;;;;;;;;11.33;59.82;99096.28;4318551;33;20348;-87
2022/02/19 04:36:51;;;;;;;;;;;;;;;11.23;59.81;99089.81;4332446;33;20051;-88
2022/02/19 04:39:16;;;;;;;;;;;;;;;11.26;59.81;99084.47;4318843;33;21239;-89
2022/02/19 04:41:42;;;;;;;;;;;;;;;11.40;59.82;99081.25;4320044;33;20228;-88
2022/02/19 04:44:07;;;;;;;;;;;;;;;11.39;59.82;99090.81;4319941;33;19991;-88
2022/02/19 04:46:32;;;;;;;;;;;;;;;11.38;59.82;99095.19;4320902;33;19984;-88
2022/02/19 04:48:57;;;;;;;;;;;;;;;11.38;59.82;99091.75;4309459;33;20709;-87
2022/02/19 04:51:23;;;;;;;;;;;;;;;11.44;59.83;99104.47;4331860;33;20298;-86
2022/02/19 04:53:48;;;;;;;;;;;;;;;11.48;59.82;99098.22;4318490;33;19987;-86
2022/02/19 04:56:13;;;;;;;;;;;;;;;11.42;59.82;99102.88;4318272;33;20345;-86
2022/02/19 04:58:38;;;;;;;;;;;;;;;11.40;59.82;99104.69;4331437;33;28302;-88
2022/02/19 05:01:04;;;;;;;;;;;;;;;11.28;59.82;99106.94;4331962;33;20377;-86
2022/02/19 05:03:29;;;;;;;;;;;;;;;11.37;59.81;99113.50;4331774;33;19980;-89
2022/02/19 05:05:54;;;;;;;;;;;;;;;11.43;59.82;99117.59;4318337;33;20016;-86
2022/02/19 05:08:19;;;;;;;;;;;;;;;11.32;59.82;99124.09;4305494;33;30408;-86
2022/02/19 05:10:44;;;;;;;;;;;;;;;11.28;59.81;99122.56;4319309;33;32793;-86
2022/02/19 05:13:10;;;;;;;;;;;;;;;11.23;59.81;99129.75;4317832;33;23593;-85
2022/02/19 05:15:35;;;;;;;;;;;;;;;11.19;59.80;99133.41;4331586;33;19975;-85
2022/02/19 05:18:02;;;;;;;;;;;;;;;11.17;59.81;99148.25;4305957;33;19988;-85
2022/02/19 05:20:28;;;;;;;;;;;;;;;11.23;59.81;99158.41;4306094;33;19998;-86
2022/02/19 05:22:53;;;;;;;;;;;;;;;11.20;59.81;99160.28;4318089;33;19969;-86
2022/02/19 05:25:18;;;;;;;;;;;;;;;11.34;59.82;99139.66;4305860;33;20038;-85
2022/02/19 05:27:43;;;;;;;;;;;;;;;11.38;59.82;99156.88;4331781;33;20015;-86
2022/02/19 05:30:09;;;;;;;;;;;;;;;11.35;59.82;99159.59;4331472;33;20335;-86
2022/02/19 05:32:34;;;;;;;;;;;;;;;11.47;59.83;99169.50;4332482;33;20297;-87
2022/02/19 05:34:59;;;;;;;;;;;;;;;11.38;59.82;99173.38;4317971;33;20043;-86
2022/02/19 05:37:25;;;;;;;;;;;;;;;11.42;59.82;99179.28;4317918;33;20022;-86
2022/02/19 05:39:50;;;;;;;;;;;;;;;11.50;59.82;99185.00;4317333;33;27292;-86
2022/02/19 05:42:15;;;;;;;;;;;;;;;11.54;59.83;99185.69;4317824;33;20259;-87
2022/02/19 05:44:40;;;;;;;;;;;;;;;11.42;59.82;99187.09;4317762;33;20043;-86
2022/02/19 05:47:06;;;;;;;;;;;;;;;11.28;59.81;99205.94;4319621;33;20396;-85
2022/02/19 05:49:31;;;;;;;;;;;;;;;11.31;59.81;99213.59;4319862;33;20254;-88
2022/02/19 05:51:56;;;;;;;;;;;;;;;11.37;59.81;99212.53;4319492;33;19987;-86
2022/02/19 05:54:23;;;;;;;;;;;;;;;11.43;59.82;99219.22;4332954;33;20014;-86
2022/02/19 05:56:48;;;;;;;;;;;;;;;11.30;59.80;99231.91;4333189;33;20055;-86
2022/02/19 05:59:13;;;;;;;;;;;;;;;11.26;59.81;99238.19;4319060;33;30406;-86
2022/02/19 06:01:38;;;;;;;;;;;;;;;11.23;59.81;99241.75;4319271;33;23694;-85
2022/02/19 06:04:04;;;;;;;;;;;;;;;11.30;59.82;99251.00;4319023;33;28923;-85
2022/02/19 06:06:29;;;;;;;;;;;;;;;11.25;59.81;99263.38;4333390;33;20023;-87
2022/02/19 06:08:54;;;;;;;;;;;;;;;11.02;59.80;99272.16;4320048;33;20299;-86
2022/02/19 06:11:20;;;;;;;;;;;;;;;11.16;59.80;99279.41;4319286;33;20023;-85
2022/02/19 06:13:46;;;;;;;;;;;;;;;11.26;59.81;99288.53;4333625;33;20035;-85
2022/02/19 06:16:11;;;;;;;;;;;;;;;10.89;59.79;99288.38;4333335;33;19994;-86
2022/02/19 06:18:36;;;;;;;;;;;;;;;10.94;59.79;99291.63;4319874;33;19995;-86
2022/02/19 06:21:01;;;;;;;;;;;;;;;11.16;59.81;99297.66;4319530;33;20006;-86
2022/02/19 06:23:27;;;;;;;;;;;;;;;11.12;59.80;99288.28;4333112;33;20004;-86
2022/02/19 06:25:52;;;;;;;;;;;;;;;11.08;59.80;99304.91;4319558;33;19996;-86
2022/02/19 06:28:17;;;;;;;;;;;;;;;10.93;59.79;99298.59;4320198;33;20289;-85
2022/02/19 06:30:42;;;;;;;;;;;;;;;10.97;59.79;99309.72;4319264;33;23227;-86
2022/02/19 06:33:08;;;;;;;;;;;;;;;10.79;59.79;99313.06;4319832;33;20031;-85
2022/02/19 06:35:33;;;;;;;;;;;;;;;10.82;59.79;99312.94;4333169;33;20006;-85
2022/02/19 06:37:58;;;;;;;;;;;;;;;10.66;59.77;99321.38;4319157;33;30601;-85
2022/02/19 06:40:23;;;;;;;;;;;;;;;10.66;59.77;99325.72;4319701;33;19984;-85
2022/02/19 06:42:48;;;;;;;;;;;;;;;10.90;59.79;99326.53;4319456;33;28771;-85
2022/02/19 06:45:14;;;;;;;;;;;;;;;10.80;59.78;99320.81;4307538;33;20040;-87
2022/02/19 06:47:39;;;;;;;;;;;;;;;10.91;59.78;99323.00;4320156;33;20035;-86
2022/02/19 06:50:05;;;;;;;;;;;;;;;10.80;59.78;99327.78;4330289;33;19995;-86
2022/02/19 06:52:30;;;;;;;;;;;;;;;10.88;59.79;99336.97;4348018;33;19979;-86
2022/02/19 06:54:55;;;;;;;;;;;;;;;10.90;59.79;99336.94;4340600;33;31082;-86
2022/02/19 06:57:21;;;;;;;;;;;;;;;10.72;59.78;99344.56;4333521;33;19995;-86
2022/02/19 06:59:48;;;;;;;;;;;;;;;10.82;59.78;99338.97;4320580;33;20046;-85
2022/02/19 07:02:13;;;;;;;;;;;;;;;10.75;59.78;99336.63;4307504;33;20353;-86
2022/02/19 07:04:38;;;;;;;;;;;;;;;10.72;59.78;99354.97;4333411;33;19976;-85
2022/02/19 07:07:04;;;;;;;;;;;;;;;10.87;59.79;99342.22;4319613;33;20479;-86
2022/02/19 07:09:29;;;;;;;;;;;;;;;10.80;59.78;99361.63;4319638;33;19988;-85
2022/02/19 07:11:54;;;;;;;;;;;;;;;10.85;59.79;99363.13;4319558;33;19999;-86
2022/02/19 07:14:20;;;;;;;;;;;;;;;10.83;59.78;99351.06;4333176;33;20305;-86
2022/02/19 07:16:45;;;;;;;;;;;;;;;10.85;59.79;99357.06;4333105;33;20057;-86
2022/02/19 07:19:10;;;;;;;;;;;;;;;10.92;59.80;99367.22;4319957;33;20055;-86
2022/02/19 07:21:36;;;;;;;;;;;;;;;10.85;59.79;99359.69;4332680;33;20019;-86
2022/02/19 07:24:01;;;;;;;;;;;;;;;10.93;59.79;99378.47;4319526;33;20018;-86
2022/02/19 07:26:26;;;;;;;;;;;;;;;10.99;59.79;99383.44;4334610;33;27452;-86
2022/02/19 07:28:51;;;;;;;;;;;;;;;10.91;59.78;99396.75;4332294;33;25783;-86
2022/02/19 07:31:17;;;;;;;;;;;;;;;10.98;59.79;99395.59;4332940;33;20022;-85
2022/02/19 07:33:42;;;;;;;;;;;;;;;10.99;59.79;99417.28;4319633;33;20338;-85
2022/02/19 07:36:08;;;;;;;;;;;;;;;10.91;59.79;99428.00;4332970;33;20365;-85
2022/02/19 07:38:33;;;;;;;;;;;;;;;10.96;59.80;99433.03;4332902;33;20031;-85
2022/02/19 07:40:58;;;;;;;;;;;;;;;11.01;59.80;99467.56;4319487;33;20007;-86
2022/02/19 07:43:23;;;;;;;;;;;;;;;10.92;59.79;99460.09;4319395;33;20027;-86
2022/02/19 07:45:49;;;;;;;;;;;;;;;10.90;59.79;99462.78;4321094;33;23161;-86
2022/02/19 07:48:15;;;;;;;;;;;;;;;10.79;59.79;99479.69;4307199;33;19988;-86
2022/02/19 07:58:52;;;;;;;;;;;;;;;11.06;59.80;99478.62;4332776;33;20292;-86
2022/02/19 08:01:17;;;;;;;;;;;;;;;11.04;59.80;99493.47;4332500;33;20003;-85
2022/02/19 08:03:44;;;;;;;;;;;;;;;10.97;59.79;99500.69;4332097;33;29538;-85
2022/02/19 08:06:09;;;;;;;;;;;;;;;10.85;59.79;99495.91;4319334;33;19966;-86
2022/02/19 08:08:35;;;;;;;;;;;;;;;10.84;59.79;99493.38;4319348;33;31093;-86
2022/02/19 08:11:00;;;;;;;;;;;;;;;10.93;59.80;99509.53;4321709;33;19995;-85
2022/02/19 08:13:26;;;;;;;;;;;;;;;10.91;59.79;99500.06;4335768;33;19983;-85
2022/02/19 08:15:51;;;;;;;;;;;;;;;10.86;59.79;99501.97;4339593;33;20065;-85
2022/02/19 08:18:16;;;;;;;;;;;;;;;10.86;59.79;99509.78;4347046;33;19979;-85
2022/02/19 08:20:42;;;;;;;;;;;;;;;11.02;59.80;99503.09;4347288;33;20011;-85
2022/02/19 08:23:08;;;;;;;;;;;;;;;11.27;59.82;99509.09;4311264;33;20027;-86
2022/02/19 08:25:34;;;;;;;;;;;;;;;11.34;59.82;99512.28;4319326;33;20008;-86
2022/02/19 08:27:59;;;;;;;;;;;;;;;11.48;59.82;99504.78;4318937;33;19986;-86
2022/02/19 08:30:25;;;;;;;;;;;;;;;11.48;59.82;99507.41;4319109;33;19996;-86
2022/02/19 08:32:50;;;;;;;;;;;;;;;11.61;59.83;99507.78;4319162;33;20039;-86
2022/02/19 08:35:15;;;;;;;;;;;;;;;11.24;59.81;99518.78;4319018;33;20338;-86
2022/02/19 08:37:40;;;;;;;;;;;;;;;11.38;59.82;99516.50;4318976;33;20031;-86
2022/02/19 08:40:08;;;;;;;;;;;;;;;11.49;59.82;99518.66;4318997;33;20341;-86
2022/02/19 08:42:34;;;;;;;;;;;;;;;11.54;59.83;99520.19;4319526;33;20013;-86
2022/02/19 08:44:59;;;;;;;;;;;;;;;11.55;59.83;99518.41;4318321;33;22360;-86
2022/02/19 08:47:25;;;;;;;;;;;;;;;11.52;59.82;99539.41;4318061;33;28848;-85
2022/02/19 08:49:50;;;;;;;;;;;;;;;11.41;59.82;99539.81;4318646;33;20035;-86
2022/02/19 08:52:15;;;;;;;;;;;;;;;11.49;59.82;99521.28;4318531;33;19999;-86
2022/02/19 08:54:40;;;;;;;;;;;;;;;11.67;59.84;99534.44;4317875;33;31836;-86
2022/02/19 08:57:05;;;;;;;;;;;;;;;11.53;59.83;99528.06;4318339;33;25204;-85
2022/02/19 08:59:31;;;;;;;;;;;;;;;11.51;59.82;99535.09;4331566;33;28857;-85
2022/02/19 09:01:58;;;;;;;;;;;;;;;11.56;59.83;99536.59;4331635;33;24028;-86
2022/02/19 09:04:23;;;;;;;;;;;;;;;11.77;59.84;99531.44;4332574;33;19984;-86
2022/02/19 09:06:48;;;;;;;;;;;;;;;11.81;59.84;99536.50;4318359;33;20015;-86
2022/02/19 09:09:14;;;;;;;;;;;;;;;11.59;59.83;99530.41;4331890;33;20035;-86
2022/02/19 09:11:39;;;;;;;;;;;;;;;11.49;59.83;99550.78;4318387;33;19979;-85
2022/02/19 09:14:04;;;;;;;;;;;;;;;11.47;59.83;99546.56;4331950;33;20002;-86
2022/02/19 09:16:32;;;;;;;;;;;;;;;11.60;59.84;99579.06;4331976;33;20051;-86
2022/02/19 09:18:57;;;;;;;;;;;;;;;11.44;59.83;99544.91;4332384;33;20329;-86
2022/02/19 09:21:23;;;;;;;;;;;;;;;11.47;59.83;99551.75;4333855;33;20015;-86
2022/02/19 09:23:48;;;;;;;;;;;;;;;11.49;59.82;99561.22;4333530;33;19984;-87
2022/02/19 09:26:13;;;;;;;;;;;;;;;11.56;59.83;99562.66;4333887;33;19980;-86
2022/02/19 09:28:39;;;;;;;;;;;;;;;11.28;59.82;99575.06;4308722;33;807348;-84
2022/02/19 09:31:04;;;;;;;;;;;;;;;11.14;59.81;99596.44;4320371;33;20003;-86
2022/02/19 09:33:29;;;;;;;;;;;;;;;11.23;59.82;99597.84;4333258;33;32124;-85
2022/02/19 09:35:55;;;;;;;;;;;;;;;11.18;59.81;99603.22;4320502;33;20504;-86
2022/02/19 09:38:20;;;;;;;;;;;;;;;11.12;59.80;99606.06;4308354;33;27948;-85
2022/02/19 09:40:45;;;;;;;;;;;;;;;11.14;59.82;99590.37;4323070;33;19995;-86
2022/02/19 09:43:11;;;;;;;;;;;;;;;11.15;59.82;99600.75;4320441;33;20348;-86
2022/02/19 09:45:36;;;;;;;;;;;;;;;11.20;59.81;99611.00;4320336;33;20302;-85
2022/02/19 09:48:02;;;;;;;;;;;;;;;11.42;59.81;99630.13;4333830;33;19988;-85
2022/02/19 09:50:27;;;;;;;;;;;;;;;11.41;59.83;99622.38;4320194;33;19988;-86
2022/02/19 09:52:53;;;;;;;;;;;;;;;11.55;59.83;99622.69;4320091;33;20332;-85
2022/02/19 09:55:18;;;;;;;;;;;;;;;11.61;59.84;99632.91;4319954;33;19976;-86
2022/02/19 09:57:43;;;;;;;;;;;;;;;11.55;59.83;99617.47;4320186;33;20281;-86
2022/02/19 10:00:09;;;;;;;;;;;;;;;11.75;59.84;99641.03;4320682;33;20002;-85
2022/02/19 10:02:35;;;;;;;;;;;;;;;11.54;59.84;99640.09;4320570;33;20307;-85
2022/02/19 10:05:10;;;;;;;;;;;;;;;11.67;59.84;99656.97;4320616;33;20014;-84
2022/02/19 10:07:36;;;;;;;;;;;;;;;11.48;59.83;99678.56;4320358;33;20015;-86
2022/02/19 10:10:01;;;;;;;;;;;;;;;11.48;59.83;99652.50;4320073;33;20439;-85
2022/02/19 10:12:27;;;;;;;;;;;;;;;11.69;59.84;99651.72;4333782;33;19975;-85
2022/02/19 10:14:52;;;;;;;;;;;;;;;11.86;59.85;99665.00;4320169;33;19979;-84
2022/02/19 10:17:22;;;;;;;;;;;;;;;11.86;59.85;99657.16;4333692;33;20030;-86
2022/02/19 10:19:50;;;;;;;;;;;;;;;11.87;59.84;99666.69;4320300;33;19992;-86
2022/02/19 10:22:16;;;;;;;;;;;;;;;12.01;59.85;99670.50;4335503;33;20330;-85
2022/02/19 10:24:46;;;;;;;;;;;;;;;11.91;59.86;99667.41;4319923;33;19976;-86
2022/02/19 10:27:11;;;;;;;;;;;;;;;11.98;59.86;99666.25;4319914;33;20015;-86
2022/02/19 10:29:46;;;;;;;;;;;;;;;11.94;59.85;99675.13;4333291;33;19992;-86
2022/02/19 10:32:11;;;;;;;;;;;;;;;12.02;59.86;99683.47;4319178;33;19998;-86
2022/02/19 10:34:36;;;;;;;;;;;;;;;12.20;59.86;99676.69;4333332;33;19976;-86
2022/02/19 10:37:02;;;;;;;;;;;;;;;12.18;59.87;99681.97;4319701;33;20177;-87
2022/02/19 10:39:28;;;;;;;;;;;;;;;12.10;59.86;99681.44;4307814;33;19992;-86
2022/02/19 10:41:54;;;;;;;;;;;;;;;12.12;59.86;99676.16;4333377;33;19984;-86
2022/02/19 10:44:20;;;;;;;;;;;;;;;12.26;59.87;99682.53;4319801;33;19987;-85
2022/02/19 10:46:45;;;;;;;;;;;;;;;12.22;59.87;99680.94;4333397;33;20009;-86
2022/02/19 10:49:13;;;;;;;;;;;;;;;12.26;59.87;99690.34;4333516;33;19984;-87
2022/02/19 10:51:40;;;;;;;;;;;;;;;12.20;59.86;99681.91;4320227;33;19987;-85
2022/02/19 10:54:08;;;;;;;;;;;;;;;12.11;59.86;99679.69;4333762;33;20337;-86
2022/02/19 10:56:33;;;;;;;;;;;;;;;12.10;59.86;99673.63;4322461;33;19964;-86
2022/02/19 10:59:00;;;;;;;;;;;;;;;11.92;59.85;99708.25;4319582;33;19999;-86
2022/02/19 11:01:25;;;;;;;;;;;;;;;11.94;59.85;99683.78;4333070;33;20297;-86
2022/02/19 11:03:56;;;;;;;;;;;;;;;12.00;59.86;99690.53;4333024;33;19980;-88
2022/02/19 11:06:25;;;;;;;;;;;;;;;11.94;59.85;99686.41;4320296;33;20345;-84
2022/02/19 11:08:50;;;;;;;;;;;;;;;11.95;59.85;99687.25;4319721;33;20019;-85
2022/02/19 11:11:15;;;;;;;;;;;;;;;11.91;59.86;99698.72;4319541;33;19995;-85
2022/02/19 11:13:41;;;;;;;;;;;;;;;11.97;59.86;99694.09;4332448;33;33742;-86
2022/02/19 11:16:06;;;;;;;;;;;;;;;11.82;59.84;99694.69;4333054;33;20014;-85
2022/02/19 11:18:32;;;;;;;;;;;;;;;12.02;59.86;99695.69;4319970;33;19991;-86
2022/02/19 11:20:58;;;;;;;;;;;;;;;12.06;59.87;99697.25;4333206;33;20600;-86
2022/02/19 11:23:23;;;;;;;;;;;;;;;12.08;59.86;99706.75;4319333;33;19975;-85
2022/02/19 11:25:49;;;;;;;;;;;;;;;12.05;59.86;99706.84;4319609;33;20004;-86
2022/02/19 11:28:15;;;;;;;;;;;;;;;12.28;59.87;99712.00;4319914;33;20425;-86
2022/02/19 11:30:50;;;;;;;;;;;;;;;12.17;59.86;99702.91;4332961;33;20343;-86
2022/02/19 11:33:15;;;;;;;;;;;;;;;12.13;59.86;99715.25;4319967;33;20036;-86
2022/02/19 11:35:41;;;;;;;;;;;;;;;12.14;59.86;99709.13;4319779;33;20015;-86
2022/02/19 11:38:25;;;;;;;;;;;;;;;12.13;59.86;99710.03;4309346;33;19959;-85
2022/02/19 11:40:52;;;;;;;;;;;;;;;12.17;59.87;99706.38;4319469;33;20105;-86
2022/02/19 11:43:47;;;;;;;;;;;;;;;12.29;59.88;99694.59;4319402;33;19998;-86
2022/02/19 11:46:15;;;;;;;;;;;;;;;12.16;59.86;99696.00;4322969;33;19988;-85
2022/02/19 11:48:44;;;;;;;;;;;;;;;12.27;59.88;99694.66;4332907;33;20041;-85
2022/02/19 11:51:22;;;;;;;;;;;;;;;12.28;59.88;99691.13;4319296;33;19972;-85
2022/02/19 11:53:52;;;;;;;;;;;;;;;12.47;59.88;99706.06;4319290;33;19983;-86
2022/02/19 11:56:27;;;;;;;;;;;;;;;12.25;59.87;99698.25;4319409;33;19996;-86
2022/02/19 11:58:53;;;;;;;;;;;;;;;12.23;59.87;99710.50;4319379;33;20043;-86
2022/02/19 12:01:18;;;;;;;;;;;;;;;12.40;59.88;99710.69;4319258;33;20010;-86
2022/02/19 12:03:43;;;;;;;;;;;;;;;12.42;59.87;99702.78;4319274;33;19992;-86
2022/02/19 12:06:22;;;;;;;;;;;;;;;12.62;59.89;99702.84;4332903;33;20023;-85
2022/02/19 12:08:56;;;;;;;;;;;;;;;12.48;59.88;99699.94;4332980;33;20042;-85
2022/02/19 12:11:22;;;;;;;;;;;;;;;12.53;59.89;99711.03;4332661;33;19976;-86
2022/02/19 12:13:54;;;;;;;;;;;;;;;12.38;59.88;99711.66;4319716;33;19995;-85
2022/02/19 12:16:28;;;;;;;;;;;;;;;12.56;59.89;99710.94;4319126;33;20377;-86
2022/02/19 12:18:56;;;;;;;;;;;;;;;12.68;59.90;99704.34;4332605;33;19992;-85
2022/02/19 12:21:33;;;;;;;;;;;;;;;12.70;59.89;99685.09;4319391;33;20042;-86
2022/02/19 12:24:11;;;;;;;;;;;;;;;12.69;59.90;99687.75;4319025;33;19976;-85
2022/02/19 12:26:55;;;;;;;;;;;;;;;12.85;59.90;99694.06;4318926;33;19991;-86
2022/02/19 12:29:21;;;;;;;;;;;;;;;12.92;59.90;99685.03;4332497;33;19995;-86
2022/02/19 12:32:00;;;;;;;;;;;;;;;12.81;59.91;99677.66;4332309;33;20381;-86
2022/02/19 12:34:25;;;;;;;;;;;;;;;12.69;59.90;99672.09;4319404;33;20403;-86
2022/02/19 12:36:54;;;;;;;;;;;;;;;12.73;59.90;99668.44;4320545;33;20070;-85
2022/02/19 12:39:20;;;;;;;;;;;;;;;12.78;59.90;99664.75;4319022;33;20000;-86
2022/02/19 12:41:45;;;;;;;;;;;;;;;12.83;59.91;99662.78;4318990;33;19976;-85
2022/02/19 12:44:12;;;;;;;;;;;;;;;12.92;59.91;99677.19;4332243;33;20011;-86
2022/02/19 12:46:38;;;;;;;;;;;;;;;12.87;59.90;99671.31;4319031;33;20043;-86
2022/02/19 12:49:03;;;;;;;;;;;;;;;13.01;59.91;99671.59;4318966;33;20013;-85